Orlando, Florida
Traffic Map
Current Weather Conditions
Orlando, Florida
Clear
Clear
22°
Feels Like: 22°
Wind Chill: 22° Ceiling: Unl
Heat Index: 22° Visibility: 10mi
Dew Point: 19° Wind: 7mph
Humidity: 87% Direction: 40° (NE)
Pressure: 30.19in Gusts: 0mph
Raw Report DataKORL 051253Z 04006KT 10SM CLR 22/19 A3019 RMK AO2 SLP226 T02170194
Traffic Incident Summary
Active as of:
Severity:
Category:
InformationThere was an issue retrieving the traffic information for this location. Please try a different location or try again shortly.
Advertisements
Track Severe Weather on mobile